Time;durP1;ratioP1;P1;durP2;ratioP2;P2;SDS_P1;SDS_P2;PMS_P1;PMS_P2;Temp;Humidity;BMP_temperature;BMP_pressure;BME280_temperature;BME280_humidity;BME280_pressure;Samples;Min_cycle;Max_cycle;Signal;HPM_P1;HPM_P2
2021/06/07 00:00:24;;;;;;;4.15;0.88;;;;;;;;;;1488754;39;20798;-85
2021/06/07 00:01:26;;;;;;;1.52;0.50;;;;;;;;;;1489440;39;20421;-84
2021/06/07 00:02:27;;;;;;;2.60;0.65;;;;;;;;;;1487067;40;20402;-84
2021/06/07 00:03:30;;;;;;;1.05;0.63;;;;;;;;;;1486782;40;20437;-84
2021/06/07 00:04:31;;;;;;;2.55;0.88;;;;;;;;;;1486573;40;20439;-83
2021/06/07 00:05:33;;;;;;;2.88;0.73;;;;;;;;;;1486723;40;20481;-85
2021/06/07 00:06:35;;;;;;;4.30;0.77;;;;;;;;;;1486753;40;20399;-83
2021/06/07 00:07:37;;;;;;;1.33;0.70;;;;;;;;;;1486727;40;20431;-84
2021/06/07 00:08:39;;;;;;;3.97;1.00;;;;;;;;;;1482599;40;21284;-84
2021/06/07 00:09:41;;;;;;;1.00;0.77;;;;;;;;;;1478010;40;20907;-83
2021/06/07 00:10:43;;;;;;;1.20;0.70;;;;;;;;;;1483037;40;21143;-83
2021/06/07 00:11:48;;;;;;;1.77;0.73;;;;;;;;;;1490130;39;20410;-83
2021/06/07 00:12:50;;;;;;;1.55;0.90;;;;;;;;;;1485481;40;20473;-83
2021/06/07 00:13:53;;;;;;;2.33;0.82;;;;;;;;;;1482199;39;20400;-83
2021/06/07 00:14:54;;;;;;;1.45;0.55;;;;;;;;;;1486767;40;20457;-83
2021/06/07 00:15:57;;;;;;;1.85;0.77;;;;;;;;;;1486374;39;20407;-83
2021/06/07 00:16:59;;;;;;;3.60;0.95;;;;;;;;;;1490459;39;20416;-83
2021/06/07 00:18:02;;;;;;;3.05;0.80;;;;;;;;;;1491684;39;20425;-83
2021/06/07 00:19:10;;;;;;;3.38;0.88;;;;;;;;;;1493624;39;20666;-83
2021/06/07 00:20:18;;;;;;;1.40;0.70;;;;;;;;;;1493124;39;20417;-84
2021/06/07 00:21:24;;;;;;;4.18;1.00;;;;;;;;;;1490900;40;20510;-85
2021/06/07 00:22:27;;;;;;;1.65;0.65;;;;;;;;;;1492257;39;20422;-85
2021/06/07 00:23:28;;;;;;;3.30;0.60;;;;;;;;;;1492769;39;20402;-84
2021/06/07 00:24:30;;;;;;;1.60;0.45;;;;;;;;;;1492565;39;20477;-84
2021/06/07 00:25:32;;;;;;;2.20;0.60;;;;;;;;;;1493495;39;20395;-84
2021/06/07 00:26:34;;;;;;;1.60;0.57;;;;;;;;;;1488715;39;20405;-85
2021/06/07 00:27:36;;;;;;;2.25;0.60;;;;;;;;;;1492385;40;20411;-84
2021/06/07 00:28:38;;;;;;;2.08;0.88;;;;;;;;;;1492153;39;20414;-83
2021/06/07 00:29:39;;;;;;;2.38;0.90;;;;;;;;;;1488938;40;20972;-84
2021/06/07 00:30:41;;;;;;;2.15;0.63;;;;;;;;;;1487985;40;20489;-84
2021/06/07 00:31:43;;;;;;;1.65;0.80;;;;;;;;;;1487823;39;20431;-84
2021/06/07 00:32:45;;;;;;;2.70;0.90;;;;;;;;;;1486760;39;20495;-84
2021/06/07 00:33:47;;;;;;;3.47;0.75;;;;;;;;;;1486418;40;20470;-85
2021/06/07 00:34:49;;;;;;;3.33;1.10;;;;;;;;;;1487199;40;20427;-84
2021/06/07 00:35:51;;;;;;;1.80;0.80;;;;;;;;;;1486632;39;20503;-85
2021/06/07 00:36:53;;;;;;;3.00;0.80;;;;;;;;;;1487161;40;20399;-83
2021/06/07 00:37:55;;;;;;;2.60;0.77;;;;;;;;;;1487986;40;20481;-84
2021/06/07 00:38:57;;;;;;;1.88;0.82;;;;;;;;;;1487086;39;20444;-84
2021/06/07 00:39:58;;;;;;;2.20;0.70;;;;;;;;;;1487280;39;20785;-84
2021/06/07 00:41:03;;;;;;;3.42;1.00;;;;;;;;;;1488057;39;20524;-84
2021/06/07 00:42:05;;;;;;;2.22;0.80;;;;;;;;;;1487056;39;20851;-84
2021/06/07 00:43:07;;;;;;;1.88;1.00;;;;;;;;;;1487403;39;20808;-84
2021/06/07 00:44:12;;;;;;;1.85;0.60;;;;;;;;;;1487507;39;20431;-84
2021/06/07 00:45:21;;;;;;;2.10;1.17;;;;;;;;;;1490405;39;20441;-84
2021/06/07 00:46:23;;;;;;;2.90;0.80;;;;;;;;;;1490709;39;20377;-85
2021/06/07 00:47:27;;;;;;;2.13;0.70;;;;;;;;;;1486736;40;20407;-85
2021/06/07 00:48:29;;;;;;;2.50;1.10;;;;;;;;;;1483274;39;20421;-84
2021/06/07 00:49:31;;;;;;;1.95;0.80;;;;;;;;;;1490760;39;20483;-85
2021/06/07 00:50:56;;;;;;;2.80;0.80;;;;;;;;;;1489291;39;20422;-84
2021/06/07 00:51:58;;;;;;;3.58;1.08;;;;;;;;;;1483245;40;20989;-84
2021/06/07 00:53:02;;;;;;;3.78;0.90;;;;;;;;;;1486789;40;20403;-84
2021/06/07 00:54:05;;;;;;;3.33;0.77;;;;;;;;;;1486406;40;20419;-84
2021/06/07 00:55:07;;;;;;;2.35;0.77;;;;;;;;;;1486981;39;20427;-85
2021/06/07 00:56:11;;;;;;;2.22;0.70;;;;;;;;;;1489243;39;20519;-84
2021/06/07 00:57:12;;;;;;;2.47;0.98;;;;;;;;;;1486394;40;20407;-84
2021/06/07 00:58:16;;;;;;;3.22;1.13;;;;;;;;;;1494940;39;20448;-84
2021/06/07 00:59:19;;;;;;;4.80;1.00;;;;;;;;;;1493528;39;20435;-84
2021/06/07 01:00:22;;;;;;;1.90;0.85;;;;;;;;;;1490674;39;20426;-84
2021/06/07 01:01:26;;;;;;;1.67;1.30;;;;;;;;;;1490340;39;20399;-85
2021/06/07 01:02:27;;;;;;;2.20;1.33;;;;;;;;;;1488837;39;20395;-85
2021/06/07 01:03:29;;;;;;;2.22;1.10;;;;;;;;;;1484636;40;20497;-84
2021/06/07 01:04:31;;;;;;;2.58;1.10;;;;;;;;;;1486295;39;20857;-84
2021/06/07 01:05:34;;;;;;;3.90;1.08;;;;;;;;;;1487450;39;20470;-84
2021/06/07 01:06:37;;;;;;;2.95;0.70;;;;;;;;;;1487622;39;20395;-84
2021/06/07 01:07:39;;;;;;;1.95;1.17;;;;;;;;;;1482782;40;20416;-83
2021/06/07 01:08:40;;;;;;;3.20;1.10;;;;;;;;;;1478840;40;20414;-84
2021/06/07 01:09:42;;;;;;;2.03;1.02;;;;;;;;;;1482018;40;20495;-84
2021/06/07 01:10:45;;;;;;;3.40;0.80;;;;;;;;;;1482654;40;20459;-84
2021/06/07 01:11:47;;;;;;;1.90;1.10;;;;;;;;;;1486146;39;20545;-84
2021/06/07 01:12:51;;;;;;;1.90;1.00;;;;;;;;;;1490741;39;20398;-83
2021/06/07 01:13:53;;;;;;;3.30;1.10;;;;;;;;;;1490625;39;20518;-84
2021/06/07 01:14:55;;;;;;;5.50;1.00;;;;;;;;;;1486395;40;20445;-85
2021/06/07 01:15:58;;;;;;;5.15;1.25;;;;;;;;;;1486228;40;20430;-85
2021/06/07 01:17:00;;;;;;;2.20;1.05;;;;;;;;;;1488140;39;20503;-84
2021/06/07 01:18:02;;;;;;;2.10;1.00;;;;;;;;;;1487012;39;21091;-84
2021/06/07 01:19:06;;;;;;;2.50;1.27;;;;;;;;;;1486408;40;20406;-84
2021/06/07 01:20:12;;;;;;;2.85;1.33;;;;;;;;;;1486936;39;20411;-84
2021/06/07 01:21:17;;;;;;;1.88;1.02;;;;;;;;;;1490956;39;20416;-83
2021/06/07 01:22:19;;;;;;;2.22;1.02;;;;;;;;;;1491040;39;20538;-83
2021/06/07 01:23:21;;;;;;;2.25;1.02;;;;;;;;;;1491423;39;20439;-83
2021/06/07 01:24:23;;;;;;;3.35;1.10;;;;;;;;;;1490740;39;20770;-85
2021/06/07 01:25:34;;;;;;;1.50;0.88;;;;;;;;;;1482056;40;20408;-85
2021/06/07 01:26:36;;;;;;;6.65;1.92;;;;;;;;;;1482320;39;20393;-85
2021/06/07 01:27:39;;;;;;;2.20;1.20;;;;;;;;;;1485334;40;20419;-84
2021/06/07 01:28:42;;;;;;;2.50;0.98;;;;;;;;;;1478168;40;20484;-84
2021/06/07 01:29:44;;;;;;;1.90;0.70;;;;;;;;;;1482796;40;20558;-83
2021/06/07 01:30:49;;;;;;;2.35;0.85;;;;;;;;;;1481560;40;20448;-84
2021/06/07 01:31:51;;;;;;;2.30;1.20;;;;;;;;;;1485342;40;20525;-85
2021/06/07 01:32:53;;;;;;;1.00;0.82;;;;;;;;;;1482656;40;20412;-84
2021/06/07 01:33:56;;;;;;;1.00;0.88;;;;;;;;;;1482159;40;20417;-84
2021/06/07 01:34:57;;;;;;;2.17;1.00;;;;;;;;;;1482230;40;21009;-83
2021/06/07 01:36:03;;;;;;;1.75;1.05;;;;;;;;;;1474053;40;20426;-84
2021/06/07 01:37:05;;;;;;;1.80;1.30;;;;;;;;;;1478820;40;20462;-84
2021/06/07 01:38:07;;;;;;;2.05;0.90;;;;;;;;;;1482259;40;20448;-85
2021/06/07 01:39:09;;;;;;;2.10;1.20;;;;;;;;;;1482259;40;20482;-84
2021/06/07 01:40:15;;;;;;;2.80;1.25;;;;;;;;;;1478121;40;20464;-85
2021/06/07 01:41:18;;;;;;;0.90;0.70;;;;;;;;;;1474266;40;20411;-84
2021/06/07 01:42:20;;;;;;;3.22;0.90;;;;;;;;;;1478353;40;20442;-84
2021/06/07 01:43:22;;;;;;;3.42;1.30;;;;;;;;;;1482231;40;20851;-84
2021/06/07 01:44:26;;;;;;;3.30;1.13;;;;;;;;;;1482050;40;20452;-85
2021/06/07 01:45:29;;;;;;;3.67;1.10;;;;;;;;;;1477334;40;20778;-85
2021/06/07 01:46:30;;;;;;;1.90;1.10;;;;;;;;;;1474090;40;20534;-84
2021/06/07 01:47:32;;;;;;;4.00;1.70;;;;;;;;;;1478279;40;20463;-85
2021/06/07 01:48:35;;;;;;;2.42;1.00;;;;;;;;;;1478803;40;20445;-85
2021/06/07 01:49:36;;;;;;;2.67;1.10;;;;;;;;;;1482302;40;20409;-85
2021/06/07 01:50:39;;;;;;;3.50;1.13;;;;;;;;;;1485162;40;20442;-84
2021/06/07 01:51:41;;;;;;;1.80;1.13;;;;;;;;;;1486646;39;20753;-84
2021/06/07 01:52:44;;;;;;;1.92;1.40;;;;;;;;;;1486772;40;20414;-84
2021/06/07 01:53:46;;;;;;;2.28;1.17;;;;;;;;;;1485107;39;20541;-85
2021/06/07 01:54:48;;;;;;;2.33;1.17;;;;;;;;;;1487279;40;20403;-85
2021/06/07 01:55:53;;;;;;;1.35;1.08;;;;;;;;;;1480174;40;20496;-84
2021/06/07 01:56:54;;;;;;;3.40;1.10;;;;;;;;;;1482130;40;20475;-85
2021/06/07 01:57:56;;;;;;;4.75;1.77;;;;;;;;;;1487866;40;20409;-85
2021/06/07 01:58:57;;;;;;;3.80;1.48;;;;;;;;;;1488080;39;20425;-85
2021/06/07 01:59:59;;;;;;;2.67;1.27;;;;;;;;;;1486762;40;20411;-84
2021/06/07 02:01:05;;;;;;;2.25;1.30;;;;;;;;;;1487155;40;20436;-84
2021/06/07 02:02:07;;;;;;;1.83;1.15;;;;;;;;;;1487175;39;20391;-84
2021/06/07 02:03:09;;;;;;;2.65;1.10;;;;;;;;;;1491361;39;20767;-84
2021/06/07 02:04:11;;;;;;;3.63;1.40;;;;;;;;;;1488530;39;20431;-84
2021/06/07 02:05:16;;;;;;;1.60;1.10;;;;;;;;;;1486667;40;20418;-83
2021/06/07 02:06:21;;;;;;;1.95;1.08;;;;;;;;;;1486222;39;20443;-83
2021/06/07 02:07:23;;;;;;;3.40;1.40;;;;;;;;;;1482746;40;20499;-84
2021/06/07 02:08:25;;;;;;;3.38;1.27;;;;;;;;;;1483056;40;20425;-84
2021/06/07 02:09:29;;;;;;;4.18;1.27;;;;;;;;;;1482214;40;20408;-84
2021/06/07 02:10:34;;;;;;;3.50;1.40;;;;;;;;;;1482946;39;20431;-83
2021/06/07 02:11:36;;;;;;;2.10;1.10;;;;;;;;;;1484789;40;20823;-84
2021/06/07 02:12:38;;;;;;;2.42;1.30;;;;;;;;;;1486807;40;20430;-84
2021/06/07 02:13:41;;;;;;;2.55;1.17;;;;;;;;;;1479517;40;20462;-84
2021/06/07 02:14:42;;;;;;;1.58;0.90;;;;;;;;;;1480119;40;20407;-85
2021/06/07 02:15:58;;;;;;;3.38;1.20;;;;;;;;;;1483418;40;20424;-84
2021/06/07 02:17:00;;;;;;;2.75;1.40;;;;;;;;;;1481605;40;20420;-84
2021/06/07 02:18:04;;;;;;;3.85;1.55;;;;;;;;;;1482126;40;20769;-84
2021/06/07 02:19:08;;;;;;;1.52;1.10;;;;;;;;;;1481598;40;20396;-84
2021/06/07 02:20:13;;;;;;;2.60;1.00;;;;;;;;;;1482347;40;20420;-84
2021/06/07 02:21:18;;;;;;;2.50;1.30;;;;;;;;;;1482759;39;21032;-84
2021/06/07 02:22:19;;;;;;;3.28;1.20;;;;;;;;;;1486770;39;20418;-84
2021/06/07 02:23:21;;;;;;;2.13;1.15;;;;;;;;;;1486536;39;20523;-84
2021/06/07 02:24:23;;;;;;;2.88;1.20;;;;;;;;;;1489168;39;20458;-84
2021/06/07 02:25:24;;;;;;;2.58;0.90;;;;;;;;;;1486586;39;20495;-84
2021/06/07 02:26:27;;;;;;;3.23;1.37;;;;;;;;;;1488733;39;20521;-84
2021/06/07 02:27:29;;;;;;;2.20;1.08;;;;;;;;;;1486911;39;20419;-84
2021/06/07 02:28:31;;;;;;;3.10;1.05;;;;;;;;;;1486127;39;20784;-84
2021/06/07 02:29:34;;;;;;;3.05;1.02;;;;;;;;;;1482350;40;20433;-84
2021/06/07 02:30:36;;;;;;;2.13;1.00;;;;;;;;;;1478364;40;20418;-84
2021/06/07 02:31:38;;;;;;;1.70;1.17;;;;;;;;;;1479759;39;20488;-84
2021/06/07 02:32:44;;;;;;;2.60;1.23;;;;;;;;;;1490365;39;20888;-84
2021/06/07 02:33:55;;;;;;;1.75;0.95;;;;;;;;;;1486272;39;20577;-83
2021/06/07 02:34:57;;;;;;;2.03;1.20;;;;;;;;;;1483224;40;20422;-84
2021/06/07 02:35:58;;;;;;;3.50;1.30;;;;;;;;;;1486313;39;20463;-84
2021/06/07 02:37:00;;;;;;;2.05;1.05;;;;;;;;;;1486487;40;20484;-83
2021/06/07 02:38:03;;;;;;;3.22;1.23;;;;;;;;;;1486139;39;20935;-84
2021/06/07 02:39:13;;;;;;;2.58;1.20;;;;;;;;;;1490647;39;20647;-85
2021/06/07 02:40:18;;;;;;;2.25;1.02;;;;;;;;;;1490162;39;20447;-84
2021/06/07 02:41:22;;;;;;;3.85;1.60;;;;;;;;;;1486908;39;20501;-84
2021/06/07 02:42:24;;;;;;;2.63;1.15;;;;;;;;;;1487042;39;20451;-84
2021/06/07 02:43:26;;;;;;;5.00;1.40;;;;;;;;;;1493194;39;20498;-86
2021/06/07 02:44:28;;;;;;;4.15;1.27;;;;;;;;;;1494387;39;20661;-85
2021/06/07 02:45:29;;;;;;;2.72;1.30;;;;;;;;;;1498393;39;20771;-85
2021/06/07 02:46:31;;;;;;;2.22;1.38;;;;;;;;;;1498281;39;20417;-84
2021/06/07 02:47:33;;;;;;;1.67;1.10;;;;;;;;;;1490739;39;20408;-83
2021/06/07 02:48:37;;;;;;;2.95;1.65;;;;;;;;;;1486468;39;20416;-84
2021/06/07 02:49:38;;;;;;;2.28;1.27;;;;;;;;;;1489190;39;20397;-85
2021/06/07 02:50:43;;;;;;;1.90;1.20;;;;;;;;;;1489636;39;20417;-84
2021/06/07 02:51:45;;;;;;;3.20;1.42;;;;;;;;;;1492584;39;20500;-84
2021/06/07 02:52:48;;;;;;;3.55;1.40;;;;;;;;;;1485995;40;20534;-84
2021/06/07 02:53:50;;;;;;;3.63;1.42;;;;;;;;;;1490906;39;20508;-84
2021/06/07 02:54:52;;;;;;;1.63;1.40;;;;;;;;;;1487349;40;20419;-84
2021/06/07 02:55:54;;;;;;;2.55;1.88;;;;;;;;;;1493369;39;20417;-84
2021/06/07 02:56:55;;;;;;;3.45;1.17;;;;;;;;;;1500761;39;20439;-84
2021/06/07 02:57:58;;;;;;;2.65;1.40;;;;;;;;;;1494383;39;20399;-84
2021/06/07 02:59:00;;;;;;;1.77;1.20;;;;;;;;;;1491324;39;20391;-84
2021/06/07 03:00:03;;;;;;;1.90;1.23;;;;;;;;;;1496903;39;20454;-84
2021/06/07 03:01:09;;;;;;;3.05;1.67;;;;;;;;;;1494579;39;20436;-83
2021/06/07 03:02:11;;;;;;;2.35;1.60;;;;;;;;;;1492915;39;20388;-84
2021/06/07 03:03:13;;;;;;;3.97;1.80;;;;;;;;;;1492412;39;20530;-84
2021/06/07 03:04:15;;;;;;;1.77;1.52;;;;;;;;;;1491554;39;20432;-83
2021/06/07 03:05:17;;;;;;;3.30;1.60;;;;;;;;;;1486966;39;20445;-83
2021/06/07 03:06:19;;;;;;;2.42;1.77;;;;;;;;;;1491181;39;20737;-84
2021/06/07 03:07:20;;;;;;;2.42;1.75;;;;;;;;;;1491822;39;20409;-84
2021/06/07 03:08:23;;;;;;;2.53;1.80;;;;;;;;;;1491464;39;20415;-83
2021/06/07 03:09:25;;;;;;;2.70;1.60;;;;;;;;;;1486416;39;20844;-84
2021/06/07 03:10:27;;;;;;;2.55;1.20;;;;;;;;;;1482900;40;20491;-84
2021/06/07 03:11:28;;;;;;;5.70;1.50;;;;;;;;;;1481218;39;20533;-84
2021/06/07 03:12:30;;;;;;;3.30;1.50;;;;;;;;;;1490972;39;21176;-84
2021/06/07 03:13:31;;;;;;;3.03;1.80;;;;;;;;;;1491246;39;20446;-84
2021/06/07 03:14:35;;;;;;;2.63;1.80;;;;;;;;;;1487068;39;20433;-84
2021/06/07 03:15:37;;;;;;;2.22;1.40;;;;;;;;;;1490970;39;20461;-84
2021/06/07 03:16:39;;;;;;;2.30;1.70;;;;;;;;;;1490199;39;20409;-83
2021/06/07 03:17:42;;;;;;;2.90;1.80;;;;;;;;;;1482703;40;20401;-83
2021/06/07 03:18:44;;;;;;;2.97;1.70;;;;;;;;;;1487055;39;20434;-83
2021/06/07 03:19:46;;;;;;;2.90;1.60;;;;;;;;;;1486712;40;20488;-84
2021/06/07 03:20:48;;;;;;;3.40;1.90;;;;;;;;;;1489929;39;20417;-83
2021/06/07 03:21:50;;;;;;;3.13;1.80;;;;;;;;;;1486057;39;20441;-84
2021/06/07 03:22:58;;;;;;;2.03;1.85;;;;;;;;;;1487025;40;20415;-84
2021/06/07 03:24:00;;;;;;;3.08;1.60;;;;;;;;;;1487581;40;20417;-84
2021/06/07 03:25:04;;;;;;;3.60;2.10;;;;;;;;;;1484218;40;20407;-84
2021/06/07 03:26:06;;;;;;;2.70;1.90;;;;;;;;;;1491967;39;20444;-84
2021/06/07 03:27:07;;;;;;;5.22;2.00;;;;;;;;;;1493272;39;20444;-84
2021/06/07 03:28:11;;;;;;;2.20;1.58;;;;;;;;;;1489243;39;20439;-84
2021/06/07 03:29:12;;;;;;;2.35;1.75;;;;;;;;;;1488640;39;20652;-83
2021/06/07 03:30:15;;;;;;;4.45;1.30;;;;;;;;;;1486847;40;20478;-85
2021/06/07 03:31:18;;;;;;;2.10;1.27;;;;;;;;;;1483078;40;20755;-84
2021/06/07 03:32:20;;;;;;;3.60;1.90;;;;;;;;;;1486902;39;20430;-84
2021/06/07 03:33:22;;;;;;;2.78;1.55;;;;;;;;;;1490211;39;20392;-85
2021/06/07 03:34:24;;;;;;;2.92;1.45;;;;;;;;;;1487544;39;20529;-84
2021/06/07 03:35:25;;;;;;;2.55;1.65;;;;;;;;;;1487358;39;20744;-84
2021/06/07 03:36:29;;;;;;;3.20;1.60;;;;;;;;;;1487349;39;20390;-83
2021/06/07 03:37:31;;;;;;;4.25;1.65;;;;;;;;;;1487368;39;20795;-85
2021/06/07 03:38:33;;;;;;;3.03;1.75;;;;;;;;;;1487191;39;20445;-85
2021/06/07 03:39:35;;;;;;;3.22;1.60;;;;;;;;;;1487549;39;20403;-85
2021/06/07 03:40:39;;;;;;;2.38;1.80;;;;;;;;;;1487254;39;20414;-85
2021/06/07 03:41:40;;;;;;;2.30;1.83;;;;;;;;;;1485282;40;20521;-84
2021/06/07 03:42:42;;;;;;;3.40;1.77;;;;;;;;;;1485732;39;20507;-84
2021/06/07 03:43:44;;;;;;;1.75;1.50;;;;;;;;;;1482808;40;20501;-84
2021/06/07 03:44:45;;;;;;;2.33;1.60;;;;;;;;;;1486799;39;20799;-84
2021/06/07 03:45:47;;;;;;;2.60;1.60;;;;;;;;;;1490267;39;20483;-83
2021/06/07 03:46:49;;;;;;;2.65;1.55;;;;;;;;;;1479992;40;20465;-84
2021/06/07 03:47:51;;;;;;;4.28;2.10;;;;;;;;;;1478908;40;20417;-85
2021/06/07 03:48:53;;;;;;;3.08;1.50;;;;;;;;;;1482913;39;20413;-84
2021/06/07 03:49:54;;;;;;;3.65;2.00;;;;;;;;;;1486730;39;20516;-84
2021/06/07 03:50:57;;;;;;;4.05;2.10;;;;;;;;;;1489555;39;20456;-84
2021/06/07 03:51:59;;;;;;;3.15;2.00;;;;;;;;;;1491174;39;20428;-84
2021/06/07 03:53:02;;;;;;;3.70;1.90;;;;;;;;;;1495053;39;20531;-84
2021/06/07 03:54:04;;;;;;;2.63;2.22;;;;;;;;;;1491030;39;20478;-84
2021/06/07 03:55:08;;;;;;;2.20;1.50;;;;;;;;;;1486600;39;20776;-85
2021/06/07 03:56:09;;;;;;;4.20;1.77;;;;;;;;;;1488064;39;20407;-84
2021/06/07 03:57:11;;;;;;;2.60;1.77;;;;;;;;;;1490643;39;20523;-84
2021/06/07 03:58:14;;;;;;;4.45;2.03;;;;;;;;;;1491181;39;20432;-85
2021/06/07 03:59:15;;;;;;;2.92;1.45;;;;;;;;;;1486425;39;20557;-84
2021/06/07 04:00:20;;;;;;;2.45;1.85;;;;;;;;;;1482461;40;20472;-84
2021/06/07 04:01:21;;;;;;;2.30;1.67;;;;;;;;;;1483236;40;20400;-84
2021/06/07 04:02:23;;;;;;;3.83;1.85;;;;;;;;;;1480046;40;20416;-84
2021/06/07 04:03:25;;;;;;;2.30;1.83;;;;;;;;;;1482230;40;20421;-84
2021/06/07 04:04:26;;;;;;;2.17;1.40;;;;;;;;;;1482798;40;20428;-85
2021/06/07 04:05:28;;;;;;;2.72;1.52;;;;;;;;;;1486383;39;20414;-84
2021/06/07 04:06:30;;;;;;;2.97;1.63;;;;;;;;;;1491184;39;20409;-84
2021/06/07 04:07:32;;;;;;;4.10;1.95;;;;;;;;;;1487267;39;20419;-85
2021/06/07 04:08:35;;;;;;;2.08;1.23;;;;;;;;;;1487064;39;20407;-85
2021/06/07 04:09:39;;;;;;;3.30;2.00;;;;;;;;;;1486393;40;20815;-85
2021/06/07 04:10:42;;;;;;;3.33;1.73;;;;;;;;;;1478573;40;20610;-85
2021/06/07 04:11:44;;;;;;;2.03;1.20;;;;;;;;;;1479368;40;20418;-84
2021/06/07 04:12:47;;;;;;;2.13;1.38;;;;;;;;;;1485018;40;20785;-83
2021/06/07 04:13:50;;;;;;;2.33;1.27;;;;;;;;;;1486612;40;20403;-84
2021/06/07 04:14:52;;;;;;;1.95;0.93;;;;;;;;;;1491029;39;20868;-84
2021/06/07 04:15:53;;;;;;;1.80;1.60;;;;;;;;;;1482161;40;20496;-84
2021/06/07 04:16:55;;;;;;;5.65;1.50;;;;;;;;;;1480828;39;20520;-84
2021/06/07 04:17:57;;;;;;;1.70;1.45;;;;;;;;;;1486815;40;20728;-84
2021/06/07 04:18:59;;;;;;;1.73;1.40;;;;;;;;;;1483270;39;20474;-84
2021/06/07 04:20:02;;;;;;;4.75;1.38;;;;;;;;;;1491068;39;20511;-85
2021/06/07 04:21:04;;;;;;;1.67;1.10;;;;;;;;;;1489427;40;20418;-85
2021/06/07 04:22:06;;;;;;;2.17;1.33;;;;;;;;;;1489505;40;21238;-85
2021/06/07 04:23:08;;;;;;;3.10;1.42;;;;;;;;;;1494254;39;20431;-84
2021/06/07 04:24:10;;;;;;;3.08;1.20;;;;;;;;;;1492070;39;20408;-84
2021/06/07 04:25:13;;;;;;;3.30;1.50;;;;;;;;;;1493204;39;20806;-83
2021/06/07 04:26:15;;;;;;;1.83;1.15;;;;;;;;;;1495077;39;20395;-84
2021/06/07 04:27:16;;;;;;;2.95;1.23;;;;;;;;;;1488994;40;20461;-84
2021/06/07 04:28:18;;;;;;;1.65;1.17;;;;;;;;;;1491103;39;20412;-84
2021/06/07 04:29:20;;;;;;;1.67;1.37;;;;;;;;;;1488351;39;20534;-85
2021/06/07 04:30:22;;;;;;;2.80;1.70;;;;;;;;;;1489997;39;20922;-86
2021/06/07 04:31:25;;;;;;;3.70;1.75;;;;;;;;;;1494367;39;20390;-84
2021/06/07 04:32:27;;;;;;;4.00;1.50;;;;;;;;;;1489658;39;20417;-84
2021/06/07 04:33:28;;;;;;;2.92;1.08;;;;;;;;;;1488588;39;20946;-84
2021/06/07 04:34:30;;;;;;;3.15;1.52;;;;;;;;;;1489630;39;20434;-85
2021/06/07 04:35:32;;;;;;;1.23;1.13;;;;;;;;;;1490117;40;20418;-85
2021/06/07 04:36:34;;;;;;;3.15;1.50;;;;;;;;;;1492751;39;20396;-85
2021/06/07 04:37:42;;;;;;;2.13;1.65;;;;;;;;;;1490370;40;20399;-86
2021/06/07 04:38:44;;;;;;;3.80;1.80;;;;;;;;;;1489724;39;20392;-84
2021/06/07 04:39:45;;;;;;;2.45;1.30;;;;;;;;;;1489778;39;20832;-84
2021/06/07 04:40:47;;;;;;;3.67;1.45;;;;;;;;;;1492313;39;20739;-85
2021/06/07 04:41:49;;;;;;;3.53;1.40;;;;;;;;;;1487815;39;20712;-84
2021/06/07 04:42:51;;;;;;;2.97;1.27;;;;;;;;;;1489637;39;20408;-84
2021/06/07 04:43:53;;;;;;;3.30;1.40;;;;;;;;;;1491262;39;20485;-84
2021/06/07 04:44:54;;;;;;;3.05;1.30;;;;;;;;;;1490920;39;20433;-84
2021/06/07 04:45:56;;;;;;;4.22;1.42;;;;;;;;;;1490963;39;20481;-85
2021/06/07 04:46:58;;;;;;;3.67;1.35;;;;;;;;;;1491690;39;20416;-85
2021/06/07 04:48:00;;;;;;;3.80;1.45;;;;;;;;;;1491071;39;20444;-85
2021/06/07 04:49:02;;;;;;;6.50;1.60;;;;;;;;;;1487247;39;20387;-84
2021/06/07 04:50:07;;;;;;;2.65;1.52;;;;;;;;;;1482591;40;20757;-85
2021/06/07 04:51:08;;;;;;;2.37;1.40;;;;;;;;;;1483362;40;20413;-85
2021/06/07 04:52:10;;;;;;;3.92;1.27;;;;;;;;;;1486981;40;20479;-85
2021/06/07 04:53:12;;;;;;;4.38;1.67;;;;;;;;;;1482465;40;20974;-84
2021/06/07 04:54:14;;;;;;;1.90;1.33;;;;;;;;;;1486591;39;20890;-85
2021/06/07 04:55:16;;;;;;;2.63;1.05;;;;;;;;;;1486263;40;20794;-85
2021/06/07 04:56:17;;;;;;;4.00;1.20;;;;;;;;;;1488626;39;20576;-84
2021/06/07 04:57:19;;;;;;;3.30;1.63;;;;;;;;;;1490601;39;20527;-85
2021/06/07 04:58:25;;;;;;;2.60;1.42;;;;;;;;;;1486617;39;20410;-85
2021/06/07 04:59:26;;;;;;;4.70;1.58;;;;;;;;;;1483124;40;20808;-84
2021/06/07 05:00:30;;;;;;;5.60;1.40;;;;;;;;;;1482799;40;20408;-85
2021/06/07 05:01:32;;;;;;;2.75;1.40;;;;;;;;;;1478888;40;20438;-84
2021/06/07 05:02:34;;;;;;;2.17;1.50;;;;;;;;;;1474638;40;20501;-84
2021/06/07 05:03:36;;;;;;;2.47;1.20;;;;;;;;;;1478987;40;20460;-85
2021/06/07 05:04:38;;;;;;;2.75;1.10;;;;;;;;;;1478262;40;20425;-85
2021/06/07 05:05:40;;;;;;;3.22;1.33;;;;;;;;;;1478153;40;20535;-85
2021/06/07 05:06:42;;;;;;;4.25;1.30;;;;;;;;;;1489977;39;20897;-85
2021/06/07 05:07:43;;;;;;;2.08;1.20;;;;;;;;;;1490982;39;20449;-84
2021/06/07 05:08:45;;;;;;;5.13;1.50;;;;;;;;;;1486640;40;20811;-85
2021/06/07 05:09:46;;;;;;;3.20;1.30;;;;;;;;;;1486224;39;20481;-84
2021/06/07 05:10:48;;;;;;;1.88;1.25;;;;;;;;;;1489400;39;20398;-85
2021/06/07 05:11:50;;;;;;;1.55;0.90;;;;;;;;;;1490023;39;20722;-85
2021/06/07 05:12:51;;;;;;;2.92;1.15;;;;;;;;;;1491386;39;20381;-84
2021/06/07 05:13:53;;;;;;;1.88;1.10;;;;;;;;;;1487013;39;20833;-86
2021/06/07 05:14:55;;;;;;;2.45;1.00;;;;;;;;;;1487031;40;20426;-85
2021/06/07 05:15:57;;;;;;;2.35;0.90;;;;;;;;;;1481867;39;20427;-85
2021/06/07 05:16:59;;;;;;;1.35;0.80;;;;;;;;;;1488666;39;20399;-85
2021/06/07 05:18:01;;;;;;;2.40;0.90;;;;;;;;;;1486691;40;20797;-85
2021/06/07 05:19:03;;;;;;;3.10;1.30;;;;;;;;;;1482770;40;20510;-85
2021/06/07 05:20:07;;;;;;;2.00;1.20;;;;;;;;;;1478803;39;20850;-85
2021/06/07 05:21:08;;;;;;;2.67;1.10;;;;;;;;;;1486992;40;20453;-85
2021/06/07 05:22:10;;;;;;;2.80;1.13;;;;;;;;;;1482445;40;20437;-85
2021/06/07 05:23:13;;;;;;;2.33;1.20;;;;;;;;;;1481243;40;20426;-85
2021/06/07 05:24:14;;;;;;;2.25;0.75;;;;;;;;;;1488650;39;20411;-86
2021/06/07 05:25:17;;;;;;;4.00;0.95;;;;;;;;;;1491664;40;20972;-85
2021/06/07 05:26:19;;;;;;;2.55;1.20;;;;;;;;;;1490772;39;20499;-85
2021/06/07 05:27:21;;;;;;;2.05;1.00;;;;;;;;;;1492510;40;20489;-85
2021/06/07 05:28:23;;;;;;;3.50;0.93;;;;;;;;;;1483903;40;20494;-85
2021/06/07 05:29:25;;;;;;;2.70;0.70;;;;;;;;;;1487561;40;20396;-85
2021/06/07 05:30:28;;;;;;;2.22;0.93;;;;;;;;;;1490767;39;20438;-85
2021/06/07 05:31:30;;;;;;;2.42;0.77;;;;;;;;;;1487009;40;20401;-85
2021/06/07 05:32:31;;;;;;;2.00;0.90;;;;;;;;;;1488704;39;20391;-85
2021/06/07 05:33:33;;;;;;;1.42;0.80;;;;;;;;;;1487324;40;20516;-85
2021/06/07 05:34:35;;;;;;;3.67;1.08;;;;;;;;;;1482663;40;20428;-86
2021/06/07 05:35:40;;;;;;;6.55;0.73;;;;;;;;;;1482490;40;20689;-85
2021/06/07 05:36:42;;;;;;;2.97;0.70;;;;;;;;;;1482745;40;20522;-86
2021/06/07 05:37:44;;;;;;;1.20;0.80;;;;;;;;;;1487243;40;20446;-85
2021/06/07 05:38:46;;;;;;;2.75;0.80;;;;;;;;;;1488915;39;20401;-85
2021/06/07 05:39:51;;;;;;;1.30;0.70;;;;;;;;;;1482714;40;20452;-85
2021/06/07 05:40:54;;;;;;;2.90;1.00;;;;;;;;;;1475128;40;20539;-85
2021/06/07 05:41:55;;;;;;;2.55;0.95;;;;;;;;;;1478124;40;20512;-85
2021/06/07 05:42:59;;;;;;;1.73;0.60;;;;;;;;;;1478872;40;20465;-84
2021/06/07 05:44:01;;;;;;;1.90;0.90;;;;;;;;;;1487109;39;20407;-85
2021/06/07 05:45:05;;;;;;;1.63;0.97;;;;;;;;;;1486769;39;20466;-85
2021/06/07 05:46:07;;;;;;;2.60;1.02;;;;;;;;;;1491164;39;20923;-84
2021/06/07 05:47:09;;;;;;;2.50;0.88;;;;;;;;;;1486807;39;20716;-85
2021/06/07 05:48:11;;;;;;;2.28;0.70;;;;;;;;;;1486845;39;20410;-85
2021/06/07 05:49:14;;;;;;;2.05;0.90;;;;;;;;;;1486558;40;20399;-85
2021/06/07 05:50:19;;;;;;;2.78;1.08;;;;;;;;;;1483089;39;20817;-86
2021/06/07 05:51:20;;;;;;;1.58;1.13;;;;;;;;;;1487530;39;20419;-85
2021/06/07 05:52:22;;;;;;;2.08;0.73;;;;;;;;;;1487403;40;20419;-85
2021/06/07 05:53:24;;;;;;;3.65;0.90;;;;;;;;;;1485951;40;20508;-84
2021/06/07 05:54:27;;;;;;;3.50;1.08;;;;;;;;;;1490209;40;20451;-85
2021/06/07 05:55:36;;;;;;;2.40;0.90;;;;;;;;;;1490148;39;20492;-85
2021/06/07 05:56:38;;;;;;;4.10;1.00;;;;;;;;;;1487769;39;20395;-85
2021/06/07 05:57:40;;;;;;;2.72;1.00;;;;;;;;;;1488070;39;20401;-85
2021/06/07 05:58:42;;;;;;;1.60;0.90;;;;;;;;;;1487270;39;20403;-85
2021/06/07 05:59:44;;;;;;;3.78;1.10;;;;;;;;;;1486963;40;20422;-85
2021/06/07 06:00:49;;;;;;;3.53;1.42;;;;;;;;;;1486767;39;20510;-85
2021/06/07 06:01:51;;;;;;;2.75;1.42;;;;;;;;;;1487179;39;20776;-84
2021/06/07 06:02:53;;;;;;;1.67;0.93;;;;;;;;;;1482744;40;20874;-84
2021/06/07 06:03:55;;;;;;;1.90;1.30;;;;;;;;;;1482150;40;20491;-85
2021/06/07 06:04:56;;;;;;;3.10;1.30;;;;;;;;;;1478651;40;20398;-83
2021/06/07 06:05:58;;;;;;;2.25;1.00;;;;;;;;;;1481359;40;20445;-85
2021/06/07 06:07:00;;;;;;;3.15;1.13;;;;;;;;;;1486554;40;20406;-84
2021/06/07 06:08:05;;;;;;;1.35;1.00;;;;;;;;;;1486617;40;20410;-84
2021/06/07 06:09:06;;;;;;;4.32;1.17;;;;;;;;;;1486661;40;20540;-85
2021/06/07 06:10:09;;;;;;;2.77;0.90;;;;;;;;;;1482361;40;20404;-85
2021/06/07 06:11:10;;;;;;;2.45;1.27;;;;;;;;;;1488478;39;20451;-84
2021/06/07 06:12:30;;;;;;;1.67;1.20;;;;;;;;;;1482978;40;20678;-84
2021/06/07 06:13:31;;;;;;;2.63;1.38;;;;;;;;;;1486294;39;20405;-85
2021/06/07 06:14:33;;;;;;;2.42;1.40;;;;;;;;;;1494019;39;20475;-85
2021/06/07 06:15:35;;;;;;;3.72;1.00;;;;;;;;;;1494979;39;20421;-85